Time;durP1;ratioP1;P1;durP2;ratioP2;P2;SDS_P1;SDS_P2;PMS_P1;PMS_P2;Temp;Humidity;BMP_temperature;BMP_pressure;BME280_temperature;BME280_humidity;BME280_pressure;Samples;Min_cycle;Max_cycle;Signal;HPM_P1;HPM_P2
2021/04/04 00:02:08;;;;;;;21.30;11.73;;;;;;;;;;4824363;28;20210;-74
2021/04/04 00:04:30;;;;;;;25.50;12.47;;;;;;;;;;4862412;28;20576;-74
2021/04/04 00:06:52;;;;;;;23.43;12.20;;;;;;;;;;4844101;28;21004;-74
2021/04/04 00:09:19;;;;;;;22.40;11.97;;;1.00;99.90;;;;;;4829240;28;20184;-75
2021/04/04 00:11:42;;;;;;;32.90;12.67;;;;;;;;;;4900261;28;20196;-74
2021/04/04 00:14:05;;;;;;;21.80;11.40;;;1.10;99.90;;;;;;4915314;28;20237;-74
2021/04/04 00:16:27;;;;;;;22.50;10.93;;;;;;;;;;4915158;28;20269;-74
2021/04/04 00:18:50;;;;;;;27.87;11.23;;;;;;;;;;4911811;28;20657;-75
2021/04/04 00:21:12;;;;;;;17.13;10.70;;;;;;;;;;4827469;28;20225;-74
2021/04/04 00:23:34;;;;;;;23.17;10.77;;;;;;;;;;4815660;28;20229;-75
2021/04/04 00:25:56;;;;;;;24.30;11.03;;;;;;;;;;4812695;28;20715;-74
2021/04/04 00:28:19;;;;;;;16.90;9.50;;;1.30;99.90;;;;;;4796074;28;20208;-74
2021/04/04 00:30:42;;;;;;;21.60;10.30;;;1.40;99.90;;;;;;4797364;28;20192;-75
2021/04/04 00:33:04;;;;;;;19.50;9.57;;;1.50;99.90;;;;;;4814674;28;20195;-74
2021/04/04 00:35:27;;;;;;;19.03;9.67;;;;;;;;;;4816519;28;20260;-74
2021/04/04 00:37:50;;;;;;;24.03;9.83;;;1.50;99.90;;;;;;4815721;28;20596;-75
2021/04/04 00:40:15;;;;;;;13.10;8.13;;;1.50;99.90;;;;;;4816370;28;20183;-74
2021/04/04 00:42:37;;;;;;;23.10;9.33;;;;;;;;;;4802233;28;20206;-75
2021/04/04 00:45:00;;;;;;;19.37;8.70;;;;;;;;;;4797339;28;20191;-74
2021/04/04 00:47:23;;;;;;;16.47;8.33;;;1.50;96.30;;;;;;4803724;28;20247;-74
2021/04/04 00:49:45;;;;;;;26.77;9.13;;;;;;;;;;4815888;28;20241;-75
2021/04/04 00:52:07;;;;;;;16.67;7.87;;;;;;;;;;4814000;28;20249;-75
2021/04/04 00:54:30;;;;;;;18.47;8.00;;;;;;;;;;4816265;28;20184;-75
2021/04/04 00:56:52;;;;;;;19.70;7.80;;;;;;;;;;4815789;28;20211;-75
2021/04/04 00:59:15;;;;;;;13.60;6.80;;;1.50;86.00;;;;;;4815989;28;20272;-74
2021/04/04 01:01:37;;;;;;;37.00;9.83;;;;;;;;;;4811951;28;20183;-75
2021/04/04 01:04:00;;;;;;;17.60;8.57;;;;;;;;;;4815864;28;20191;-75
2021/04/04 01:06:22;;;;;;;15.83;8.27;;;;;;;;;;4815821;28;20195;-74
2021/04/04 01:08:45;;;;;;;20.20;8.03;;;;;;;;;;4814539;28;20249;-75
2021/04/04 01:11:08;;;;;;;16.43;7.70;;;1.50;75.90;;;;;;4815978;28;20184;-75
2021/04/04 01:13:39;;;;;;;14.13;7.20;;;1.50;74.10;;;;;;4800048;28;20272;-74
2021/04/04 01:16:06;;;;;;;16.90;8.20;;;1.50;71.00;;;;;;4815858;28;20680;-74
2021/04/04 01:18:34;;;;;;;15.07;7.70;;;1.40;68.60;;;;;;4817835;28;20183;-74
2021/04/04 01:21:00;;;;;;;12.57;7.07;;;1.40;67.90;;;;;;4888767;28;20199;-75
2021/04/04 01:24:10;;;;;;;14.03;6.70;;;1.40;67.70;;;;;;4818152;28;20458;-74
2021/04/04 01:26:44;;;;;;;14.20;7.10;;;1.40;67.40;;;;;;4819065;28;20226;-74
2021/04/04 01:29:09;;;;;;;16.23;7.27;;;1.40;66.10;;;;;;4819002;28;20200;-75
2021/04/04 01:31:33;;;;;;;36.27;9.37;;;1.40;65.10;;;;;;4818059;28;20624;-74
2021/04/04 01:33:58;;;;;;;15.60;7.40;;;1.50;62.10;;;;;;4818791;28;20191;-73
2021/04/04 01:36:21;;;;;;;21.33;8.20;;;1.50;60.10;;;;;;4818494;28;20226;-74
2021/04/04 01:38:45;;;;;;;29.60;8.90;;;1.50;58.90;;;;;;4818449;28;20184;-74
2021/04/04 01:41:13;;;;;;;14.47;6.60;;;1.50;57.90;;;;;;4817323;28;20268;-74
2021/04/04 01:43:35;;;;;;;14.67;6.77;;;;;;;;;;4817844;28;20249;-75
2021/04/04 01:45:59;;;;;;;13.63;6.20;;;1.50;53.00;;;;;;4818549;28;20232;-75
2021/04/04 01:48:22;;;;;;;16.43;7.37;;;;;;;;;;4817463;28;20240;-75
2021/04/04 01:50:45;;;;;;;27.07;7.97;;;1.50;51.50;;;;;;4818292;28;20214;-74
2021/04/04 01:53:07;;;;;;;14.57;6.83;;;;;;;;;;4817963;28;20183;-74
2021/04/04 01:55:31;;;;;;;13.30;6.20;;;1.50;49.70;;;;;;4818471;28;20215;-75
2021/04/04 01:57:55;;;;;;;15.53;6.60;;;1.50;47.80;;;;;;4818274;28;20642;-75
2021/04/04 02:00:20;;;;;;;12.93;6.47;;;2.50;47.30;;;;;;4818485;28;20221;-74
2021/04/04 02:02:46;;;;;;;21.90;7.67;;;1.40;45.10;;;;;;4816562;28;20256;-75
2021/04/04 02:05:10;;;;;;;13.60;6.13;;;1.40;44.90;;;;;;4817133;28;20203;-75
2021/04/04 02:07:33;;;;;;;12.67;5.90;;;1.30;45.40;;;;;;4818539;28;20598;-74
2021/04/04 02:09:56;;;;;;;16.87;7.07;;;1.30;45.40;;;;;;4816933;28;20195;-74
2021/04/04 02:12:19;;;;;;;15.60;6.67;;;1.30;45.60;;;;;;4817580;28;20280;-74
2021/04/04 02:14:43;;;;;;;19.10;6.37;;;1.20;46.20;;;;;;4818254;28;20226;-75
2021/04/04 02:17:07;;;;;;;13.40;6.00;;;1.20;46.40;;;;;;4818247;28;20815;-74
2021/04/04 02:19:32;;;;;;;17.57;6.33;;;1.20;45.80;;;;;;4849904;28;20584;-75
2021/04/04 02:21:56;;;;;;;14.47;6.33;;;1.10;45.30;;;;;;4852182;28;20240;-75
2021/04/04 02:24:21;;;;;;;16.73;5.87;;;1.00;44.70;;;;;;4818539;28;20184;-74
2021/04/04 02:26:43;;;;;;;15.87;5.80;;;;;;;;;;4817755;28;20244;-74
2021/04/04 02:29:06;;;;;;;12.07;5.57;;;1.10;45.20;;;;;;4817452;28;20546;-74
2021/04/04 02:31:32;;;;;;;34.63;8.40;;;1.00;44.90;;;;;;4816223;28;20249;-74
2021/04/04 02:33:58;;;;;;;14.53;6.00;;;1.00;44.80;;;;;;4818048;28;20714;-74
2021/04/04 02:36:23;;;;;;;14.73;5.90;;;1.00;45.70;;;;;;4817852;28;20616;-74
2021/04/04 02:38:48;;;;;;;19.70;6.43;;;1.00;46.50;;;;;;4816436;28;20261;-75
2021/04/04 02:41:11;;;;;;;12.60;5.60;;;;;;;;;;4818023;28;20187;-75
2021/04/04 02:43:34;;;;;;;12.70;5.37;;;0.90;45.60;;;;;;4817276;28;20256;-74
2021/04/04 02:46:00;;;;;;;15.63;5.73;;;0.90;46.50;;;;;;4807094;28;20281;-75
2021/04/04 02:48:28;;;;;;;13.30;5.40;;;0.80;47.70;;;;;;4799123;28;20234;-75
2021/04/04 02:50:52;;;;;;;21.63;7.40;;;0.80;48.70;;;;;;4798772;28;20707;-74
2021/04/04 02:53:16;;;;;;;10.07;4.80;;;2.50;52.10;;;;;;4798368;28;20254;-75
2021/04/04 02:55:39;;;;;;;19.97;6.80;;;0.80;51.50;;;;;;4798884;28;20254;-75
2021/04/04 02:58:06;;;;;;;18.23;7.13;;;0.80;52.10;;;;;;4798875;28;20623;-74
2021/04/04 03:00:29;;;;;;;72.87;13.60;;;1.50;54.70;;;;;;4797085;28;20184;-75
2021/04/04 03:02:53;;;;;;;19.10;6.50;;;0.80;54.40;;;;;;4798052;28;20185;-74
2021/04/04 03:05:16;;;;;;;10.87;5.50;;;;;;;;;;4797660;28;21233;-74
2021/04/04 03:07:42;;;;;;;22.27;6.93;;;0.80;55.50;;;;;;4798552;28;20206;-75
2021/04/04 03:10:07;;;;;;;15.60;6.13;;;0.80;55.30;;;;;;4797248;28;20301;-74
2021/04/04 03:12:32;;;;;;;14.70;6.10;;;0.80;55.60;;;;;;4797852;28;20224;-74
2021/04/04 03:14:58;;;;;;;10.27;5.47;;;0.80;56.00;;;;;;4798549;28;20176;-75
2021/04/04 03:17:21;;;;;;;12.10;5.73;;;0.80;55.20;;;;;;4798596;28;20219;-74
2021/04/04 03:19:45;;;;;;;21.53;6.70;;;0.80;53.60;;;;;;4847084;28;20191;-76
2021/04/04 03:22:08;;;;;;;15.77;6.43;;;0.80;52.40;;;;;;4841754;28;20653;-75
2021/04/04 03:24:32;;;;;;;14.50;6.20;;;0.80;51.50;;;;;;4817306;28;20590;-75
2021/04/04 03:26:56;;;;;;;10.97;5.70;;;0.70;51.70;;;;;;4817092;28;20464;-75
2021/04/04 03:29:19;;;;;;;10.97;5.10;;;0.70;51.70;;;;;;4816069;28;20191;-75
2021/04/04 03:31:41;;;;;;;33.37;8.43;;;0.60;52.10;;;;;;4816091;28;20191;-75
2021/04/04 03:34:04;;;;;;;15.43;6.30;;;0.60;52.70;;;;;;4817232;28;20638;-75
2021/04/04 03:36:27;;;;;;;13.13;5.93;;;;;;;;;;4815776;28;20315;-75
2021/04/04 03:38:51;;;;;;;19.93;7.20;;;0.70;55.30;;;;;;4815730;28;20241;-74
2021/04/04 03:41:14;;;;;;;18.30;6.57;;;0.60;55.80;;;;;;4816094;28;20192;-75
2021/04/04 03:43:38;;;;;;;16.67;6.97;;;0.60;55.60;;;;;;4816220;28;20188;-74
2021/04/04 03:46:02;;;;;;;15.43;6.43;;;0.50;55.00;;;;;;4816855;28;20726;-75
2021/04/04 03:48:27;;;;;;;13.70;5.93;;;0.60;54.30;;;;;;4818458;28;20218;-75
2021/04/04 03:50:51;;;;;;;23.23;7.10;;;0.50;54.30;;;;;;4815587;28;20200;-75
2021/04/04 03:53:13;;;;;;;15.97;6.17;;;;;;;;;;4816283;28;20261;-74
2021/04/04 03:55:36;;;;;;;12.93;5.30;;;;;;;;;;4817163;28;20187;-75
2021/04/04 03:57:59;;;;;;;11.83;5.17;;;0.50;59.30;;;;;;4816446;28;20203;-75
2021/04/04 04:00:25;;;;;;;21.70;6.23;;;0.60;61.50;;;;;;4816105;28;20237;-75
2021/04/04 04:02:49;;;;;;;23.83;6.50;;;0.60;60.90;;;;;;4815389;28;20225;-75
2021/04/04 04:05:12;;;;;;;12.87;5.33;;;0.60;61.10;;;;;;4816809;28;20210;-75
2021/04/04 04:07:35;;;;;;;9.97;5.00;;;;;;;;;;4815347;28;20725;-75
2021/04/04 04:09:58;;;;;;;12.77;5.50;;;0.60;57.90;;;;;;4816311;28;20249;-75
2021/04/04 04:12:41;;;;;;;21.17;6.37;;;0.60;56.20;;;;;;4815451;28;20753;-74
2021/04/04 04:15:25;;;;;;;12.70;5.07;;;0.60;55.30;;;;;;4816539;28;20584;-75
2021/04/04 04:18:09;;;;;;;12.07;5.50;;;0.50;53.70;;;;;;4816429;28;20646;-75
2021/04/04 04:20:51;;;;;;;21.17;5.97;;;0.50;53.10;;;;;;4812701;28;20195;-74
2021/04/04 04:23:36;;;;;;;10.93;4.67;;;0.40;51.60;;;;;;4797146;28;20546;-74
2021/04/04 04:25:58;;;;;;;14.00;5.50;;;;;;;;;;4797552;28;20629;-75
2021/04/04 04:28:21;;;;;;;14.70;5.73;;;0.30;48.00;;;;;;4796373;28;20549;-75
2021/04/04 04:30:44;;;;;;;17.37;5.87;;;0.20;47.00;;;;;;4796291;28;20200;-75
2021/04/04 04:33:09;;;;;;;10.70;4.67;;;0.10;47.10;;;;;;4808755;28;20187;-75
2021/04/04 04:35:32;;;;;;;12.70;5.57;;;0.00;47.80;;;;;;4816430;28;20245;-75
2021/04/04 04:37:56;;;;;;;14.10;6.03;;;0.00;49.20;;;;;;4816162;28;20219;-74
2021/04/04 04:40:19;;;;;;;13.37;6.10;;;-0.10;50.40;;;;;;4816374;28;20256;-74
2021/04/04 04:42:43;;;;;;;22.90;7.73;;;-0.20;51.70;;;;;;4813579;28;20225;-75
2021/04/04 04:45:05;;;;;;;17.17;6.87;;;;;;;;;;4816164;28;20589;-75
2021/04/04 04:47:29;;;;;;;16.43;6.97;;;-0.30;56.10;;;;;;4816243;28;21007;-74
2021/04/04 04:49:51;;;;;;;22.27;7.27;;;;;;;;;;4815886;28;20184;-74
2021/04/04 04:52:14;;;;;;;13.03;5.77;;;-0.30;60.60;;;;;;4814460;28;20606;-75
2021/04/04 04:54:37;;;;;;;11.87;4.47;;;;;;;;;;4807427;28;20242;-74
2021/04/04 04:56:59;;;;;;;13.27;5.07;;;-0.30;64.20;;;;;;4800614;28;20216;-75
2021/04/04 04:59:22;;;;;;;17.97;7.57;;;;;;;;;;4805879;28;20212;-75
2021/04/04 05:01:46;;;;;;;24.27;7.70;;;-0.30;70.00;;;;;;4816693;28;20593;-75
2021/04/04 05:04:09;;;;;;;16.37;6.60;;;-0.30;72.30;;;;;;4819391;28;20196;-75
2021/04/04 05:06:32;;;;;;;18.20;7.60;;;;;;;;;;4819312;28;20602;-75
2021/04/04 05:08:55;;;;;;;26.10;8.47;;;-0.30;75.10;;;;;;4819125;28;20183;-75
2021/04/04 05:11:18;;;;;;;18.37;8.13;;;-0.20;76.40;;;;;;4818104;28;21166;-73
2021/04/04 05:13:41;;;;;;;22.40;7.57;;;-0.20;77.40;;;;;;4818309;28;20976;-75
2021/04/04 05:16:08;;;;;;;18.70;7.73;;;-0.10;78.80;;;;;;4817873;28;20203;-75
2021/04/04 05:18:30;;;;;;;14.80;6.63;;;;;;;;;;4819248;28;20203;-75
2021/04/04 05:20:56;;;;;;;13.00;5.83;;;0.00;81.10;;;;;;4888777;28;20210;-74
2021/04/04 05:23:21;;;;;;;10.40;5.17;;;0.10;82.00;;;;;;4818174;28;20191;-74
2021/04/04 05:25:45;;;;;;;20.73;6.93;;;0.20;82.90;;;;;;4818666;28;20957;-75
2021/04/04 05:28:07;;;;;;;15.90;6.37;;;;;;;;;;4818995;28;20196;-75
2021/04/04 05:30:30;;;;;;;19.70;7.47;;;;;;;;;;4818804;28;21196;-74
2021/04/04 05:32:52;;;;;;;24.23;7.17;;;;;;;;;;4818061;28;20188;-74
2021/04/04 05:35:16;;;;;;;11.87;5.90;;;0.50;75.90;;;;;;4819164;28;20192;-75
2021/04/04 05:37:42;;;;;;;18.93;6.63;;;0.60;73.10;;;;;;4817312;28;20289;-75
2021/04/04 05:40:04;;;;;;;19.70;6.33;;;;;;;;;;4818119;28;20652;-75
2021/04/04 05:42:29;;;;;;;16.40;5.90;;;0.80;65.80;;;;;;4818148;28;20188;-75
2021/04/04 05:44:56;;;;;;;16.10;5.67;;;0.90;63.90;;;;;;4817245;28;20248;-73
2021/04/04 05:47:24;;;;;;;11.93;5.77;;;1.00;62.20;;;;;;4818723;28;21009;-74
2021/04/04 05:49:53;;;;;;;18.37;6.37;;;1.10;61.50;;;;;;4818560;28;20188;-74
2021/04/04 05:52:22;;;;;;;10.53;5.50;;;1.30;57.40;;;;;;4818037;28;20241;-75
2021/04/04 05:55:02;;;;;;;17.30;6.17;;;1.30;50.40;;;;;;4818463;28;20217;-74
2021/04/04 05:57:33;;;;;;;14.17;6.00;;;1.40;46.70;;;;;;4818436;28;20219;-75
2021/04/04 05:59:58;;;;;;;12.00;5.40;;;1.60;44.30;;;;;;4818471;28;20195;-75
2021/04/04 06:03:03;;;;;;;10.90;5.10;;;1.70;34.40;;;;;;4814783;28;20664;-75
2021/04/04 06:05:55;;;;;;;12.10;4.77;;;1.80;23.50;;;;;;4817571;28;20236;-74
2021/04/04 06:08:48;;;;;;;8.47;4.33;;;1.80;18.50;;;;;;4816341;28;20211;-74
2021/04/04 06:11:21;;;;;;;14.10;5.27;;;2.00;22.50;;;;;;4838437;28;20731;-75
2021/04/04 06:13:56;;;;;;;18.53;6.03;;;2.30;17.20;;;;;;4817809;28;20224;-75
2021/04/04 06:16:27;;;;;;;9.17;4.57;;;2.60;13.80;;;;;;4818236;28;20890;-74
2021/04/04 06:19:01;;;;;;;18.47;5.33;;;3.00;1.70;;;;;;4819703;28;20745;-74
2021/04/04 06:21:32;;;;;;;13.80;4.53;;;3.30;1.00;;;;;;4874475;28;20183;-75
2021/04/04 06:24:00;;;;;;;11.60;4.47;;;3.50;1.00;;;;;;4817987;28;20225;-75
2021/04/04 06:26:36;;;;;;;8.70;3.93;;;3.70;1.00;;;;;;4817976;28;20191;-74
2021/04/04 06:29:06;;;;;;;11.43;4.03;;;3.80;1.00;;;;;;4818192;28;20191;-75
2021/04/04 06:31:36;;;;;;;30.00;6.57;;;3.90;1.00;;;;;;4814311;28;21704;-75
2021/04/04 06:34:06;;;;;;;11.63;3.73;;;3.90;1.00;;;;;;4805890;28;20253;-75
2021/04/04 06:36:43;;;;;;;11.50;3.47;;;4.10;1.00;;;;;;4802901;28;20210;-75
2021/04/04 06:39:26;;;;;;;15.03;4.13;;;4.30;1.00;;;;;;4805280;28;20203;-75
2021/04/04 06:42:09;;;;;;;21.90;5.57;;;4.50;99.90;;;;;;4807610;28;20253;-75
2021/04/04 06:44:42;;;;;;;10.60;4.40;;;4.70;99.90;;;;;;4806718;28;20180;-76
2021/04/04 06:47:09;;;;;;;13.73;4.03;;;5.10;3.70;;;;;;4808105;28;20200;-74
2021/04/04 06:49:40;;;;;;;10.17;3.30;;;5.50;1.00;;;;;;4808069;28;20187;-74
2021/04/04 06:52:18;;;;;;;13.50;3.83;;;5.70;99.90;;;;;;4807192;28;20183;-75
2021/04/04 06:54:49;;;;;;;16.67;4.23;;;5.70;50.90;;;;;;4812544;28;20707;-74
2021/04/04 06:57:37;;;;;;;15.70;4.17;;;5.60;1.00;;;;;;4813191;28;20264;-75
2021/04/04 07:00:05;;;;;;;11.50;3.87;;;5.30;1.00;;;;;;4811186;28;20710;-75
2021/04/04 07:02:33;;;;;;;11.77;4.07;;;5.00;1.00;;;;;;4815029;28;20229;-75
2021/04/04 07:05:00;;;;;;;19.70;4.90;;;4.80;1.00;;;;;;4815605;28;20290;-75
2021/04/04 07:07:43;;;;;;;15.23;4.50;;;4.60;1.00;;;;;;4800952;28;20653;-75
2021/04/04 07:10:14;;;;;;;14.17;4.67;;;4.70;59.50;;;;;;4827785;28;20265;-75
2021/04/04 07:13:13;;;;;;;14.27;5.43;;;4.60;9.50;;;;;;4798139;28;20992;-75
2021/04/04 07:15:48;;;;;;;15.47;4.77;;;4.90;99.90;;;;;;4801080;28;20195;-75
2021/04/04 07:18:32;;;;;;;19.97;5.03;;;5.20;99.90;;;;;;4814355;28;20252;-75
2021/04/04 07:21:17;;;;;;;26.40;6.33;;;5.70;99.90;;;;;;4799414;28;20212;-75
2021/04/04 07:23:50;;;;;;;20.17;4.93;;;6.00;56.10;;;;;;4814170;28;20175;-74
2021/04/04 07:26:26;;;;;;;11.80;3.73;;;6.50;1.00;;;;;;4817320;28;20201;-74
2021/04/04 07:29:05;;;;;;;31.67;5.67;;;6.70;1.00;;;;;;4815911;28;20187;-75
2021/04/04 07:31:32;;;;;;;26.60;4.70;;;6.90;1.00;;;;;;4829253;28;20190;-75
2021/04/04 07:34:04;;;;;;;18.47;3.73;;;7.00;1.00;;;;;;4815500;28;20688;-74
2021/04/04 07:36:38;;;;;;;12.43;2.97;;;7.10;1.00;;;;;;4816564;28;20236;-74
2021/04/04 07:39:05;;;;;;;10.30;2.67;;;8.60;1.00;;;;;;4808223;28;20648;-74
2021/04/04 07:41:35;;;;;;;29.23;4.93;;;7.10;1.00;;;;;;4797715;28;20641;-75
2021/04/04 07:44:07;;;;;;;11.73;2.80;;;7.00;1.00;;;;;;4815969;28;20232;-75
2021/04/04 07:46:36;;;;;;;10.53;2.83;;;6.90;1.00;;;;;;4815375;28;20214;-75
2021/04/04 07:49:09;;;;;;;8.50;2.60;;;6.80;1.00;;;;;;4808702;28;20221;-75
2021/04/04 07:51:35;;;;;;;31.40;5.23;;;6.70;1.00;;;;;;4810365;28;20188;-75
2021/04/04 07:54:03;;;;;;;11.60;2.90;;;6.70;1.00;;;;;;4798182;28;20799;-75
2021/04/04 07:56:31;;;;;;;11.97;2.93;;;6.60;1.00;;;;;;4812939;28;20241;-75
2021/04/04 07:58:56;;;;;;;11.80;3.13;;;;;;;;;;4816568;28;20265;-75
2021/04/04 08:01:22;;;;;;;11.73;3.10;;;6.60;1.00;;;;;;4798493;28;20241;-74
2021/04/04 08:03:50;;;;;;;15.00;3.73;;;6.60;1.00;;;;;;4797640;28;20226;-75
2021/04/04 08:06:14;;;;;;;9.00;2.70;;;6.60;1.00;;;;;;4798079;28;20188;-75
2021/04/04 08:08:40;;;;;;;14.43;3.27;;;6.70;1.00;;;;;;4802531;28;20237;-74
2021/04/04 08:11:10;;;;;;;11.23;3.03;;;6.80;1.00;;;;;;4815462;28;20304;-75
2021/04/04 08:13:40;;;;;;;12.83;3.00;;;7.10;1.00;;;;;;4798848;28;20578;-75
2021/04/04 08:16:08;;;;;;;12.60;3.10;;;7.30;1.00;;;;;;4907428;28;20208;-75
2021/04/04 08:18:31;;;;;;;12.43;3.20;;;7.60;1.00;;;;;;4811548;28;20216;-75
2021/04/04 08:20:57;;;;;;;17.47;3.47;;;8.10;1.00;;;;;;4801576;28;20245;-74
2021/04/04 08:23:25;;;;;;;10.70;2.40;;;8.90;1.00;;;;;;4814688;28;20195;-74
2021/04/04 08:25:53;;;;;;;22.60;4.60;;;9.90;1.00;;;;;;4796128;28;20782;-73
2021/04/04 08:28:24;;;;;;;8.83;2.47;;;10.70;99.90;;;;;;4799380;28;20209;-75
2021/04/04 08:30:52;;;;;;;16.93;3.67;;;11.20;99.90;;;;;;4797034;28;20176;-75
2021/04/04 08:33:19;;;;;;;13.43;3.23;;;11.40;99.90;;;;;;4810501;28;20244;-74
2021/04/04 08:35:46;;;;;;;19.27;3.43;;;11.50;99.90;;;;;;4798834;28;20195;-74
2021/04/04 08:38:11;;;;;;;11.23;2.40;;;11.60;99.90;;;;;;4801535;28;20212;-73
2021/04/04 08:40:35;;;;;;;12.00;2.70;;;11.70;99.90;;;;;;4811232;28;20229;-74
2021/04/04 08:42:58;;;;;;;19.20;4.10;;;11.60;99.90;;;;;;4878648;28;20275;-75
2021/04/04 08:45:29;;;;;;;12.67;2.53;;;11.60;99.90;;;;;;4797508;28;20188;-74
2021/04/04 08:47:53;;;;;;;170.20;90.87;;;11.50;99.90;;;;;;4805155;28;20180;-75
2021/04/04 08:50:18;;;;;;;335.33;124.73;;;11.40;99.90;;;;;;4805162;28;20287;-75
2021/04/04 08:52:52;;;;;;;146.30;85.77;;;11.40;99.90;;;;;;4811339;28;20241;-75
2021/04/04 08:55:19;;;;;;;17.27;3.13;;;11.30;99.90;;;;;;4807662;28;20190;-75
2021/04/04 08:57:44;;;;;;;27.10;7.27;;;11.40;99.90;;;;;;4808348;28;20331;-75
2021/04/04 09:00:07;;;;;;;18.87;8.07;;;;;;;;;;4814634;28;20586;-74
2021/04/04 09:02:36;;;;;;;17.83;3.73;;;12.00;99.90;;;;;;4808210;28;20192;-74
2021/04/04 09:05:04;;;;;;;219.73;105.83;;;12.50;99.90;;;;;;4808442;28;20285;-74
2021/04/04 09:07:26;;;;;;;12.83;2.23;;;;;;;;;;4806774;28;20196;-75
2021/04/04 09:09:52;;;;;;;26.10;3.70;;;14.80;99.90;;;;;;4812867;28;20194;-74
2021/04/04 09:12:15;;;;;;;15.87;2.97;;;16.40;99.90;;;;;;4806723;28;20227;-73
2021/04/04 09:14:39;;;;;;;6.47;1.43;;;18.60;99.90;;;;;;4807533;28;20771;-75
2021/04/04 09:17:07;;;;;;;6.03;1.33;;;21.20;99.90;;;;;;4803110;28;20663;-75
2021/04/04 09:19:30;;;;;;;9.23;1.40;;;24.10;99.90;;;;;;4810346;28;20195;-75
2021/04/04 09:21:53;;;;;;;12.90;2.00;;;;;;;;;;4807397;28;20244;-75
2021/04/04 09:24:15;;;;;;;11.57;1.83;;;;;;;;;;4811786;28;20195;-75
2021/04/04 09:26:38;;;;;;;6.03;1.07;;;23.70;99.90;;;;;;4803792;28;20238;-75
2021/04/04 09:29:01;;;;;;;4.37;0.80;;;;;;;;;;4807432;28;20195;-74
2021/04/04 09:31:26;;;;;;;10.53;1.70;;;20.10;99.90;;;;;;4805555;28;20199;-75
2021/04/04 09:33:57;;;;;;;16.23;2.33;;;18.40;99.90;;;;;;4804491;28;20195;-73
2021/04/04 09:36:20;;;;;;;10.13;1.67;;;;;;;;;;4806111;28;20188;-73
2021/04/04 09:38:42;;;;;;;15.00;2.27;;;;;;;;;;4803692;28;20220;-76
2021/04/04 09:41:06;;;;;;;5.20;1.00;;;14.70;99.90;;;;;;4806334;28;20191;-76
2021/04/04 09:43:29;;;;;;;10.23;1.83;;;13.90;99.90;;;;;;4811819;28;20192;-74
2021/04/04 09:45:51;;;;;;;13.80;2.33;;;;;;;;;;4812571;28;20228;-75
2021/04/04 09:48:24;;;;;;;11.17;2.03;;;12.80;99.90;;;;;;4815926;28;20230;-73
2021/04/04 09:50:46;;;;;;;13.67;2.63;;;;;;;;;;4811312;28;20191;-72
2021/04/04 09:53:09;;;;;;;11.07;2.17;;;;;;;;;;4878440;28;20716;-73
2021/04/04 09:55:32;;;;;;;10.63;1.97;;;;;;;;;;4817510;28;20184;-73
2021/04/04 09:57:57;;;;;;;12.47;2.60;;;12.30;99.90;;;;;;4817285;28;20699;-73
2021/04/04 10:00:23;;;;;;;9.57;1.87;;;14.50;99.90;;;;;;4816006;28;20195;-74
2021/04/04 10:02:47;;;;;;;14.67;2.53;;;;;;;;;;4816365;28;20180;-74
2021/04/04 10:05:10;;;;;;;7.90;1.63;;;15.50;99.90;;;;;;4817656;28;20245;-74
2021/04/04 10:07:32;;;;;;;5.50;1.20;;;;;;;;;;4816795;28;20187;-74
2021/04/04 10:09:55;;;;;;;13.63;2.70;;;;;;;;;;4816009;28;20192;-74
2021/04/04 10:12:17;;;;;;;8.77;1.73;;;;;;;;;;4806237;28;20940;-74
2021/04/04 10:14:39;;;;;;;6.20;1.33;;;;;;;;;;4809266;28;20184;-74
2021/04/04 10:17:20;;;;;;;6.83;1.60;;;12.30;99.90;;;;;;4798658;28;20189;-75
2021/04/04 10:19:56;;;;;;;12.83;2.67;;;11.70;99.90;;;;;;4813548;28;20183;-75
2021/04/04 10:22:18;;;;;;;10.07;2.10;;;11.40;99.90;;;;;;4799705;28;20196;-75
2021/04/04 10:24:40;;;;;;;11.67;2.23;;;;;;;;;;4798398;28;20655;-74
2021/04/04 10:27:20;;;;;;;8.23;2.07;;;11.00;99.90;;;;;;4810502;28;20254;-74
2021/04/04 10:29:42;;;;;;;14.33;2.83;;;;;;;;;;4815520;28;20203;-75
2021/04/04 10:32:05;;;;;;;7.57;2.00;;;10.80;99.90;;;;;;4816279;28;20264;-75
2021/04/04 10:34:41;;;;;;;10.80;2.47;;;10.70;99.90;;;;;;4816863;28;20652;-74
2021/04/04 10:37:04;;;;;;;9.37;2.23;;;;;;;;;;4817038;28;20180;-74
2021/04/04 10:39:26;;;;;;;8.47;2.07;;;;;;;;;;4817073;28;20211;-74
2021/04/04 10:41:48;;;;;;;13.93;2.83;;;;;;;;;;4816230;28;20250;-74
2021/04/04 10:44:20;;;;;;;8.47;2.07;;;10.30;99.90;;;;;;4815723;28;20196;-75
2021/04/04 10:46:43;;;;;;;9.17;2.10;;;;;;;;;;4816754;28;20176;-74
2021/04/04 10:49:05;;;;;;;9.83;2.40;;;;;;;;;;4816804;28;20184;-74
2021/04/04 10:51:30;;;;;;;21.00;4.07;;;9.80;99.90;;;;;;4815848;28;20645;-75
2021/04/04 10:53:52;;;;;;;15.10;3.00;;;;;;;;;;4816800;28;20180;-75
2021/04/04 10:56:14;;;;;;;6.87;2.00;;;;;;;;;;4817556;28;20213;-75
2021/04/04 10:58:37;;;;;;;8.27;2.30;;;;;;;;;;4816791;28;20245;-75
2021/04/04 11:01:00;;;;;;;5.47;1.83;;;9.50;99.90;;;;;;4815118;28;20221;-75
2021/04/04 11:03:23;;;;;;;8.67;2.40;;;;;;;;;;4799906;28;20254;-74
2021/04/04 11:05:45;;;;;;;14.50;3.43;;;;;;;;;;4797748;28;20242;-75
2021/04/04 11:08:08;;;;;;;9.33;2.53;;;10.20;99.90;;;;;;4810570;28;20522;-74
2021/04/04 11:10:31;;;;;;;8.83;2.47;;;11.40;99.90;;;;;;4816325;28;20188;-75
2021/04/04 11:12:53;;;;;;;10.83;2.70;;;;;;;;;;4815757;28;20227;-74
2021/04/04 11:15:18;;;;;;;6.13;1.50;;;15.90;99.90;;;;;;4816424;28;20188;-74
2021/04/04 11:17:41;;;;;;;14.10;2.50;;;17.80;99.90;;;;;;4815986;28;20211;-74
2021/04/04 11:20:05;;;;;;;11.20;1.90;;;19.00;99.90;;;;;;4816687;28;20609;-73
2021/04/04 11:22:28;;;;;;;8.23;1.47;;;;;;;;;;4815215;28;20260;-75
2021/04/04 11:25:02;;;;;;;8.87;1.57;;;19.30;99.90;;;;;;4804178;28;20787;-73
2021/04/04 11:27:41;;;;;;;6.53;1.20;;;19.50;99.90;;;;;;4815366;28;20203;-75
2021/04/04 11:30:04;;;;;;;10.70;1.73;;;;;;;;;;4808520;28;20254;-75
2021/04/04 11:32:26;;;;;;;7.57;1.30;;;;;;;;;;4798587;28;20198;-74
2021/04/04 11:34:58;;;;;;;19.73;2.97;;;25.50;99.90;;;;;;4803986;28;20183;-75
2021/04/04 11:37:39;;;;;;;12.23;1.83;;;27.80;99.90;;;;;;4806283;28;20657;-76
2021/04/04 11:40:13;;;;;;;17.40;2.43;;;27.90;99.90;;;;;;4806892;28;20243;-76
2021/04/04 11:42:36;;;;;;;16.60;2.40;;;;;;;;;;4815490;28;20207;-75
2021/04/04 11:44:58;;;;;;;7.73;1.30;;;;;;;;;;4816134;28;20234;-75
2021/04/04 11:47:23;;;;;;;11.93;1.83;;;21.80;99.90;;;;;;4816014;28;20193;-74
2021/04/04 11:49:49;;;;;;;21.07;2.97;;;19.40;99.90;;;;;;4806256;28;20755;-75
2021/04/04 11:52:48;;;;;;;15.47;2.23;;;17.70;99.90;;;;;;4796581;28;20240;-75
2021/04/04 11:55:10;;;;;;;15.17;2.27;;;;;;;;;;4797239;28;20215;-75
2021/04/04 11:57:35;;;;;;;11.43;1.70;;;15.10;99.90;;;;;;4797115;28;20689;-73
2021/04/04 11:59:58;;;;;;;9.60;1.60;;;14.30;99.90;;;;;;4797128;28;20206;-74
2021/04/04 12:02:21;;;;;;;12.00;1.90;;;13.50;99.90;;;;;;4793285;28;20200;-72
2021/04/04 12:04:47;;;;;;;16.30;2.47;;;;;;;;;;4796964;28;20242;-73
2021/04/04 12:07:12;;;;;;;11.47;1.93;;;12.30;99.90;;;;;;4797107;28;20544;-73
2021/04/04 12:09:35;;;;;;;10.27;1.90;;;11.80;99.90;;;;;;4795806;28;20204;-73
2021/04/04 12:11:57;;;;;;;7.63;1.40;;;11.30;99.90;;;;;;4796109;28;20743;-74
2021/04/04 12:14:20;;;;;;;11.73;2.20;;;11.00;99.90;;;;;;4796785;28;20695;-74
2021/04/04 12:16:46;;;;;;;17.53;2.90;;;10.70;99.90;;;;;;4796758;28;20214;-74
2021/04/04 12:19:09;;;;;;;11.40;2.17;;;;;;;;;;4796844;28;20265;-75
2021/04/04 12:21:31;;;;;;;30.57;6.13;;;;;;;;;;4805153;28;20728;-73
2021/04/04 12:23:53;;;;;;;19.07;4.63;;;10.10;99.90;;;;;;4815313;28;20183;-73
2021/04/04 12:26:18;;;;;;;14.57;4.03;;;9.90;99.90;;;;;;4815473;28;20240;-75
2021/04/04 12:28:40;;;;;;;19.33;3.43;;;;;;;;;;4814815;28;20623;-75
2021/04/04 12:31:03;;;;;;;10.87;2.27;;;9.70;99.90;;;;;;4815518;28;20653;-74
2021/04/04 12:33:26;;;;;;;11.63;2.40;;;;;;;;;;4814382;28;20184;-74
2021/04/04 12:35:50;;;;;;;19.10;3.50;;;9.60;99.90;;;;;;4815003;28;20248;-73
2021/04/04 12:38:21;;;;;;;16.30;3.20;;;9.60;99.90;;;;;;4813959;28;20701;-73
2021/04/04 12:40:44;;;;;;;20.43;3.83;;;;;;;;;;4814808;28;20236;-74
2021/04/04 12:43:07;;;;;;;12.70;2.83;;;9.60;99.90;;;;;;4811473;28;20656;-75
2021/04/04 12:45:35;;;;;;;11.37;2.50;;;9.60;99.90;;;;;;4811338;28;20191;-74
2021/04/04 12:48:00;;;;;;;16.17;6.00;;;9.60;99.90;;;;;;4916048;28;20199;-74
2021/04/04 12:50:23;;;;;;;15.20;3.10;;;;;;;;;;4815205;28;20204;-74
2021/04/04 12:52:47;;;;;;;22.40;4.13;;;9.80;99.90;;;;;;4812905;28;20607;-75
2021/04/04 12:55:14;;;;;;;10.40;2.43;;;9.90;99.90;;;;;;4813529;28;20192;-74
2021/04/04 12:57:36;;;;;;;9.23;2.23;;;;;;;;;;4815086;28;20264;-74
2021/04/04 12:59:59;;;;;;;10.53;2.40;;;;;;;;;;4814681;28;20223;-74
2021/04/04 13:02:21;;;;;;;12.00;2.63;;;;;;;;;;4812588;28;20207;-74
2021/04/04 13:04:44;;;;;;;13.77;3.03;;;10.00;99.90;;;;;;4801736;28;20196;-74
2021/04/04 13:07:09;;;;;;;9.67;2.30;;;10.10;99.90;;;;;;4796107;28;20253;-74
2021/04/04 13:09:31;;;;;;;10.00;2.47;;;;;;;;;;4796264;28;20192;-75